Pinhao, Brazil
Current Conditions -  °F | °C
As of 1:00 PM on Saturday 22 Nov 2014 (Local Time) from SBCH Reporting Station
Overcast Overcast  
Wind Chill: 70°   Ceiling: 900
Heat Index: 70°   Visibility: 5mi
Dew Point: 64°   Wind: 7mph
Humidity: 83%   Direction: 290°WNW
Pressure: 29.97"   Gusts: NA
Location:  25.7°S, 51.66°W
Report Text: SBCH 221500Z 29006KT 8000 BKN009 OVC015 21/18 Q1015
Loading
Personal Weather Stations






























Interactive Weather Map New forecast layout! Learn more

10-Day Weather Forecast

Advertisements
Track Severe Weather on mobile